Time;durP1;ratioP1;P1;durP2;ratioP2;P2;SDS_P1;SDS_P2;PMS_P1;PMS_P2;Temp;Humidity;BMP_temperature;BMP_pressure;BME280_temperature;BME280_humidity;BME280_pressure;Samples;Min_cycle;Max_cycle;Signal;HPM_P1;HPM_P2
2022/08/21 09:00:46;;;;;;;;;;;;;;;22.20;72.01;96908.56;4248612;27;10282;-82
2022/08/21 09:02:53;;;;;;;;;;;;;;;22.48;71.41;96908.13;4240982;27;5780;-82
2022/08/21 09:04:57;;;;;;;;;;;;;;;22.71;70.78;96908.72;4248475;27;5755;-83
2022/08/21 09:07:13;;;;;;;;;;;;;;;22.87;70.39;96907.66;4257737;27;5586;-83
2022/08/21 09:09:27;;;;;;;;;;;;;;;23.02;70.59;96902.31;4235641;27;5722;-81
2022/08/21 09:11:36;;;;;;;;;;;;;;;23.15;69.70;96906.34;4234306;27;5612;-81
2022/08/21 09:13:49;;;;;;;;;;;;;;;23.27;69.55;96908.75;4243206;27;5642;-81
2022/08/21 09:16:02;;;;;;;;;;;;;;;23.37;69.43;96906.06;4249574;27;6314;-82
2022/08/21 09:18:22;;;;;;;;;;;;;;;23.42;69.31;96898.75;4249528;27;5601;-82
2022/08/21 09:20:38;;;;;;;;;;;;;;;23.45;68.97;96897.41;4248548;27;5648;-82
2022/08/21 09:22:59;;;;;;;;;;;;;;;23.51;68.66;96899.00;4249419;27;5605;-82
2022/08/21 09:25:13;;;;;;;;;;;;;;;23.53;68.37;96894.13;4245618;27;5680;-82
2022/08/21 09:27:18;;;;;;;;;;;;;;;23.56;68.00;96898.16;4249579;27;5609;-82
2022/08/21 09:29:25;;;;;;;;;;;;;;;23.60;68.37;96888.50;4231135;28;5641;-82
2022/08/21 09:31:32;;;;;;;;;;;;;;;23.64;68.12;96894.97;4250799;27;5668;-82
2022/08/21 09:33:35;;;;;;;;;;;;;;;23.70;67.84;96894.69;4243248;27;5714;-82
2022/08/21 09:35:51;;;;;;;;;;;;;;;23.72;67.77;96897.91;4232007;28;5723;-82
2022/08/21 09:37:56;;;;;;;;;;;;;;;23.75;67.60;96897.34;4232378;28;5820;-82
2022/08/21 09:39:59;;;;;;;;;;;;;;;23.77;67.27;96889.78;4232273;28;5773;-83
2022/08/21 09:42:05;;;;;;;;;;;;;;;23.82;67.32;96888.97;4232115;28;5722;-83
2022/08/21 09:44:10;;;;;;;;;;;;;;;23.84;67.24;96894.09;4232396;28;5706;-83
2022/08/21 09:46:22;;;;;;;;;;;;;;;23.85;67.02;96885.72;4232353;28;5812;-82
2022/08/21 09:48:26;;;;;;;;;;;;;;;23.89;66.56;96883.25;4232062;28;5760;-83
2022/08/21 09:50:34;;;;;;;;;;;;;;;23.91;66.51;96883.81;4232002;28;5710;-83
2022/08/21 09:52:44;;;;;;;;;;;;;;;23.94;66.84;96878.66;4232236;28;5721;-82
2022/08/21 09:54:52;;;;;;;;;;;;;;;23.97;66.23;96880.00;4231940;28;5923;-82
2022/08/21 09:59:21;;;;;;;;;;;;;;;24.00;66.23;96874.03;4234824;27;5626;-83
2022/08/21 10:01:27;;;;;;;;;;;;;;;23.99;66.57;96881.34;4204812;28;5797;-82
2022/08/21 10:03:31;;;;;;;;;;;;;;;24.02;66.33;96874.59;4220911;28;5069;-81
2022/08/21 10:05:34;;;;;;;;;;;;;;;24.02;66.35;96880.81;4220664;28;5600;-82
2022/08/21 10:07:38;;;;;;;;;;;;;;;24.03;65.74;96870.81;4220825;28;5529;-81
2022/08/21 10:09:42;;;;;;;;;;;;;;;24.02;65.83;96867.31;4220067;28;5513;-82
2022/08/21 10:11:59;;;;;;;;;;;;;;;24.04;65.84;96872.41;4202491;28;5648;-82
2022/08/21 10:14:14;;;;;;;;;;;;;;;24.04;65.32;96862.44;4220303;28;5532;-81
2022/08/21 10:16:28;;;;;;;;;;;;;;;24.00;65.55;96860.53;4220409;28;5555;-82
2022/08/21 10:18:40;;;;;;;;;;;;;;;24.04;65.12;96861.63;4202094;28;5720;-82
2022/08/21 10:20:48;;;;;;;;;;;;;;;24.04;65.06;96857.03;4219861;28;5561;-81
2022/08/21 10:23:02;;;;;;;;;;;;;;;24.05;65.05;96852.44;4220269;28;5521;-82
2022/08/21 10:25:15;;;;;;;;;;;;;;;24.07;64.72;96855.66;4201979;28;8382;-82
2022/08/21 10:27:28;;;;;;;;;;;;;;;24.07;64.78;96853.75;4220638;28;5536;-82
2022/08/21 10:29:45;;;;;;;;;;;;;;;24.08;64.64;96854.56;4219787;28;7085;-82
2022/08/21 10:31:58;;;;;;;;;;;;;;;24.09;64.08;96848.06;4220031;28;5549;-82
2022/08/21 10:34:18;;;;;;;;;;;;;;;24.10;63.97;96847.00;4243527;27;5610;-82
2022/08/21 10:36:27;;;;;;;;;;;;;;;24.13;64.08;96841.06;4234360;28;5863;-82
2022/08/21 10:38:56;;;;;;;;;;;;;;;24.14;63.71;96839.97;4233630;28;5668;-83
2022/08/21 10:41:29;;;;;;;;;;;;;;;24.16;63.37;96837.78;4233103;28;5763;-83
2022/08/21 10:43:36;;;;;;;;;;;;;;;24.17;63.60;96834.00;4237131;28;6425;-82
2022/08/21 10:45:53;;;;;;;;;;;;;;;24.16;63.28;96835.09;4240077;27;5598;-83
2022/08/21 10:48:03;;;;;;;;;;;;;;;24.18;63.11;96826.69;4253991;27;5591;-82
2022/08/21 10:50:19;;;;;;;;;;;;;;;24.18;63.21;96827.50;4253753;27;5575;-82
2022/08/21 10:52:54;;;;;;;;;;;;;;;24.20;62.91;96821.81;4253719;27;5611;-83
2022/08/21 10:55:04;;;;;;;;;;;;;;;24.21;62.68;96824.25;4253627;27;5747;-85
2022/08/21 10:57:17;;;;;;;;;;;;;;;24.24;62.72;96817.50;4253916;27;5694;-85
2022/08/21 10:59:40;;;;;;;;;;;;;;;24.27;62.45;96820.44;4253512;27;5678;-83
2022/08/21 11:01:50;;;;;;;;;;;;;;;24.27;62.35;96820.44;4228430;27;5763;-84
2022/08/21 11:04:12;;;;;;;;;;;;;;;24.28;62.49;96815.84;4219884;28;5751;-84
2022/08/21 11:06:21;;;;;;;;;;;;;;;24.30;62.43;96817.19;4219321;28;7382;-84
2022/08/21 11:08:29;;;;;;;;;;;;;;;24.32;62.05;96814.22;4220246;28;5751;-84
2022/08/21 11:10:39;;;;;;;;;;;;;;;24.33;61.92;96811.22;4219700;28;5740;-84
2022/08/21 11:12:57;;;;;;;;;;;;;;;24.38;61.97;96805.00;4218685;28;5660;-84
2022/08/21 11:15:05;;;;;;;;;;;;;;;24.41;61.50;96807.13;4219806;28;5732;-84
2022/08/21 11:17:11;;;;;;;;;;;;;;;24.44;61.31;96808.47;4219550;28;5730;-83
2022/08/21 11:19:20;;;;;;;;;;;;;;;24.45;61.35;96801.97;4219426;28;5794;-84
2022/08/21 11:21:38;;;;;;;;;;;;;;;24.49;61.34;96803.03;4219415;28;5685;-84
2022/08/21 11:23:48;;;;;;;;;;;;;;;24.52;61.40;96807.88;4219742;28;5771;-83
2022/08/21 11:25:56;;;;;;;;;;;;;;;24.53;60.86;96804.06;4219185;28;5746;-83
2022/08/21 11:28:03;;;;;;;;;;;;;;;24.54;60.90;96805.69;4219508;28;5735;-83
2022/08/21 11:30:08;;;;;;;;;;;;;;;24.54;60.86;96800.28;4219310;28;5763;-83
2022/08/21 11:32:42;;;;;;;;;;;;;;;24.55;60.79;96793.78;4221446;28;5756;-84
2022/08/21 11:34:58;;;;;;;;;;;;;;;24.57;60.40;96795.09;4219123;28;5628;-83
2022/08/21 11:37:14;;;;;;;;;;;;;;;24.60;60.76;96793.75;4235969;28;5613;-83
2022/08/21 11:39:26;;;;;;;;;;;;;;;24.62;60.31;96796.97;4236257;28;5609;-83
2022/08/21 11:41:30;;;;;;;;;;;;;;;24.61;60.30;96790.75;4235937;28;5746;-83
2022/08/21 11:43:40;;;;;;;;;;;;;;;24.63;60.09;96787.78;4235960;28;5738;-83
2022/08/21 11:45:48;;;;;;;;;;;;;;;24.63;60.25;96787.78;4236152;27;5718;-83
2022/08/21 11:48:00;;;;;;;;;;;;;;;24.65;59.95;96780.19;4236070;28;5660;-83
2022/08/21 11:50:13;;;;;;;;;;;;;;;24.69;60.15;96789.38;4235096;28;5612;-82
2022/08/21 11:52:41;;;;;;;;;;;;;;;24.71;60.01;96779.06;4236456;28;5729;-83
2022/08/21 11:54:50;;;;;;;;;;;;;;;24.72;59.97;96775.28;4235772;28;5765;-83
2022/08/21 11:56:59;;;;;;;;;;;;;;;24.79;59.53;96775.72;4235999;28;7635;-83
2022/08/21 11:59:07;;;;;;;;;;;;;;;24.81;59.89;96768.16;4235632;28;5614;-82
2022/08/21 12:01:13;;;;;;;;;;;;;;;24.83;59.93;96768.69;4227625;28;5669;-82
2022/08/21 12:03:25;;;;;;;;;;;;;;;24.85;59.37;96771.91;4218903;28;5676;-82
2022/08/21 12:05:32;;;;;;;;;;;;;;;24.87;59.46;96777.81;4218784;28;5666;-82
2022/08/21 12:07:40;;;;;;;;;;;;;;;24.89;59.27;96774.84;4218827;28;5688;-82
2022/08/21 12:09:53;;;;;;;;;;;;;;;24.91;59.22;96773.44;4218613;28;5688;-83
2022/08/21 12:12:03;;;;;;;;;;;;;;;24.93;59.13;96776.69;4217304;28;5769;-82
2022/08/21 12:14:17;;;;;;;;;;;;;;;24.97;59.03;96769.63;4215543;28;5683;-82
2022/08/21 12:16:31;;;;;;;;;;;;;;;25.00;59.22;96764.72;4217993;28;5805;-83
2022/08/21 12:18:34;;;;;;;;;;;;;;;25.03;58.88;96769.59;4218447;28;5767;-83
2022/08/21 12:20:43;;;;;;;;;;;;;;;25.02;59.20;96757.97;4218148;28;5674;-82
2022/08/21 12:23:02;;;;;;;;;;;;;;;25.04;59.22;96760.41;4218403;28;5673;-82
2022/08/21 12:25:08;;;;;;;;;;;;;;;25.06;58.86;96750.09;4218583;28;5677;-82
2022/08/21 12:27:25;;;;;;;;;;;;;;;25.06;58.82;96750.09;4218754;28;5681;-82
2022/08/21 12:29:31;;;;;;;;;;;;;;;25.07;58.99;96749.00;4217975;28;5677;-82
2022/08/21 12:31:34;;;;;;;;;;;;;;;25.08;58.90;96750.63;4217628;28;5725;-83
2022/08/21 12:33:41;;;;;;;;;;;;;;;25.12;58.50;96752.44;4222446;28;5656;-83
2022/08/21 12:35:44;;;;;;;;;;;;;;;25.15;58.57;96751.09;4235023;28;5676;-83
2022/08/21 12:37:52;;;;;;;;;;;;;;;25.19;58.44;96757.53;4235512;28;5607;-82
2022/08/21 12:40:00;;;;;;;;;;;;;;;25.20;58.29;96759.13;4235171;28;5601;-82
2022/08/21 12:42:08;;;;;;;;;;;;;;;25.20;58.14;96745.63;4235302;28;5804;-82
2022/08/21 12:44:17;;;;;;;;;;;;;;;25.22;57.71;96748.84;4235432;28;5684;-82
2022/08/21 12:46:28;;;;;;;;;;;;;;;25.24;57.69;96746.63;4218269;28;5608;-82
2022/08/21 12:48:36;;;;;;;;;;;;;;;25.26;57.75;96749.88;4217941;28;5612;-83
2022/08/21 12:50:43;;;;;;;;;;;;;;;25.28;57.46;96745.00;4218042;28;5064;-83
2022/08/21 12:52:59;;;;;;;;;;;;;;;25.30;57.67;96739.28;4218122;28;5608;-86
2022/08/21 12:55:04;;;;;;;;;;;;;;;25.30;57.61;96748.22;4218286;28;5671;-83
2022/08/21 12:57:08;;;;;;;;;;;;;;;25.30;57.61;96759.03;4200312;28;5654;-83
2022/08/21 12:59:13;;;;;;;;;;;;;;;25.34;56.96;96745.72;4217326;28;5613;-83
2022/08/21 13:01:24;;;;;;;;;;;;;;;25.35;57.05;96750.84;4217993;28;5685;-83
2022/08/21 13:03:28;;;;;;;;;;;;;;;25.37;57.04;96743.25;4218217;28;5680;-82
2022/08/21 13:05:34;;;;;;;;;;;;;;;25.40;57.03;96737.25;4217681;28;5755;-82
2022/08/21 13:07:38;;;;;;;;;;;;;;;25.42;56.65;96740.47;4218268;28;5688;-82
2022/08/21 13:09:45;;;;;;;;;;;;;;;25.42;56.69;96740.47;4218190;28;5691;-83
2022/08/21 13:11:51;;;;;;;;;;;;;;;25.45;56.60;96737.19;4218302;28;5673;-83
2022/08/21 13:13:54;;;;;;;;;;;;;;;25.48;56.76;96728.50;4218238;28;5763;-82
2022/08/21 13:16:05;;;;;;;;;;;;;;;25.48;56.69;96733.94;4218413;28;5728;-82
2022/08/21 13:18:22;;;;;;;;;;;;;;;25.51;56.63;96727.94;4218194;28;5676;-82
2022/08/21 13:20:30;;;;;;;;;;;;;;;25.52;56.23;96726.81;4217808;28;5689;-82
2022/08/21 13:22:36;;;;;;;;;;;;;;;25.54;56.53;96723.81;4217927;28;5685;-83
2022/08/21 13:24:39;;;;;;;;;;;;;;;25.55;56.40;96720.81;4217997;28;5762;-82
2022/08/21 13:26:45;;;;;;;;;;;;;;;25.56;56.24;96713.50;4218008;28;5668;-82
2022/08/21 13:28:50;;;;;;;;;;;;;;;25.58;56.04;96722.13;4216613;28;5648;-82
2022/08/21 13:30:55;;;;;;;;;;;;;;;25.60;55.84;96724.59;4217961;28;5803;-82
2022/08/21 13:33:00;;;;;;;;;;;;;;;25.61;55.80;96721.56;4217767;28;5665;-82
2022/08/21 13:35:11;;;;;;;;;;;;;;;25.63;55.66;96718.56;4228830;28;5745;-81
2022/08/21 13:37:15;;;;;;;;;;;;;;;25.64;55.72;96712.06;4237693;28;5813;-82
2022/08/21 13:39:19;;;;;;;;;;;;;;;25.64;55.81;96709.34;4237489;27;5617;-82
2022/08/21 13:41:25;;;;;;;;;;;;;;;25.66;55.49;96721.50;4234237;28;5805;-82
2022/08/21 13:43:33;;;;;;;;;;;;;;;25.68;55.52;96715.78;4237803;27;5764;-82
2022/08/21 13:45:37;;;;;;;;;;;;;;;25.68;55.38;96726.63;4237882;28;5793;-82
2022/08/21 13:47:43;;;;;;;;;;;;;;;25.66;55.06;96723.41;4237878;27;5705;-82
2022/08/21 13:49:48;;;;;;;;;;;;;;;25.64;55.25;96715.56;4237553;27;5655;-81
2022/08/21 13:51:51;;;;;;;;;;;;;;;25.64;54.85;96715.56;4237418;28;5651;-81
2022/08/21 13:53:55;;;;;;;;;;;;;;;25.67;54.79;96703.34;4237806;27;5660;-81
2022/08/21 13:55:59;;;;;;;;;;;;;;;25.69;54.70;96706.56;4237864;27;5663;-81
2022/08/21 13:58:05;;;;;;;;;;;;;;;25.70;54.66;96708.22;4237561;27;5086;-82
2022/08/21 14:00:14;;;;;;;;;;;;;;;25.71;54.56;96698.97;4236183;28;5601;-81
2022/08/21 14:02:22;;;;;;;;;;;;;;;25.72;54.25;96698.72;4220704;28;5636;-82
2022/08/21 14:04:32;;;;;;;;;;;;;;;25.74;54.02;96699.22;4220550;28;5625;-82
2022/08/21 14:06:38;;;;;;;;;;;;;;;25.75;54.22;96697.31;4220283;28;5616;-81
2022/08/21 14:08:42;;;;;;;;;;;;;;;25.73;54.17;96705.75;4220208;28;5616;-81
2022/08/21 14:10:48;;;;;;;;;;;;;;;25.71;54.04;96701.69;4220462;28;5625;-81
2022/08/21 14:13:02;;;;;;;;;;;;;;;25.71;54.03;96698.97;4220082;28;5615;-81
2022/08/21 14:15:07;;;;;;;;;;;;;;;25.70;53.81;96700.09;4220497;28;5612;-81
2022/08/21 14:17:14;;;;;;;;;;;;;;;25.71;53.84;96698.97;4220320;28;5632;-80
2022/08/21 14:19:42;;;;;;;;;;;;;;;25.77;53.53;96700.53;4220060;28;5667;-81
2022/08/21 14:21:46;;;;;;;;;;;;;;;25.81;53.36;96699.66;4219947;28;5613;-81
2022/08/21 14:24:00;;;;;;;;;;;;;;;25.85;53.10;96691.75;4219416;28;5766;-80
2022/08/21 14:26:07;;;;;;;;;;;;;;;25.85;53.00;96694.47;4220353;28;5739;-81
2022/08/21 14:28:19;;;;;;;;;;;;;;;25.94;52.46;96686.50;4220214;28;5698;-81
2022/08/21 14:30:29;;;;;;;;;;;;;;;26.02;51.75;96683.91;4220247;28;5660;-81
2022/08/21 14:32:38;;;;;;;;;;;;;;;26.09;51.75;96692.47;4220324;28;5683;-81
2022/08/21 14:34:48;;;;;;;;;;;;;;;26.08;51.41;96692.78;4201862;28;5642;-82
2022/08/21 14:36:51;;;;;;;;;;;;;;;26.07;51.63;96696.59;4232658;28;5643;-81
2022/08/21 14:38:54;;;;;;;;;;;;;;;26.04;51.51;96689.03;4237332;27;5663;-81
2022/08/21 14:41:00;;;;;;;;;;;;;;;26.03;51.62;96685.50;4236575;28;5648;-81
2022/08/21 14:43:06;;;;;;;;;;;;;;;26.03;51.79;96690.13;4236805;28;5771;-82
2022/08/21 14:45:18;;;;;;;;;;;;;;;26.04;51.68;96687.13;4236233;27;5721;-81
2022/08/21 14:47:28;;;;;;;;;;;;;;;26.03;51.59;96690.94;4236467;28;5689;-81
2022/08/21 14:49:31;;;;;;;;;;;;;;;26.02;51.51;96683.91;4236511;28;7691;-81
2022/08/21 14:51:35;;;;;;;;;;;;;;;26.03;51.50;96685.50;4236633;28;5734;-81
2022/08/21 14:53:55;;;;;;;;;;;;;;;26.06;51.50;96678.72;4237056;27;5678;-82
2022/08/21 14:56:07;;;;;;;;;;;;;;;26.06;51.49;96673.31;4236633;27;7745;-82
2022/08/21 14:58:10;;;;;;;;;;;;;;;26.04;51.31;96687.13;4236919;27;5722;-82
2022/08/21 15:00:17;;;;;;;;;;;;;;;26.06;51.03;96674.09;4236314;28;5789;-81
2022/08/21 15:02:20;;;;;;;;;;;;;;;26.08;50.80;96676.50;4219565;28;6305;-81
2022/08/21 15:04:23;;;;;;;;;;;;;;;26.06;50.88;96674.09;4219669;28;5616;-81
2022/08/21 15:06:26;;;;;;;;;;;;;;;26.05;50.76;96669.78;4221879;28;5526;-84
2022/08/21 15:08:30;;;;;;;;;;;;;;;26.06;50.72;96667.88;4225627;28;5612;-82
2022/08/21 15:10:34;;;;;;;;;;;;;;;26.08;50.51;96671.09;4236296;28;5659;-79
2022/08/21 15:12:54;;;;;;;;;;;;;;;26.07;50.29;96670.28;4209291;28;6547;-81
2022/08/21 15:14:57;;;;;;;;;;;;;;;26.02;50.39;96673.06;4226823;28;5698;-81
2022/08/21 15:17:00;;;;;;;;;;;;;;;26.01;50.39;96663.34;4217775;28;5819;-81
2022/08/21 15:19:04;;;;;;;;;;;;;;;26.01;50.46;96671.47;4231639;28;5594;-81
2022/08/21 15:21:06;;;;;;;;;;;;;;;25.99;50.41;96662.03;4235866;28;5597;-82
2022/08/21 15:23:10;;;;;;;;;;;;;;;25.97;50.27;96665.03;4236051;28;5602;-80
2022/08/21 15:25:18;;;;;;;;;;;;;;;25.97;49.91;96664.22;4236221;28;5609;-81
2022/08/21 15:27:21;;;;;;;;;;;;;;;25.93;49.83;96653.16;4201568;28;5651;-81
2022/08/21 15:29:24;;;;;;;;;;;;;;;25.91;49.99;96657.28;4219090;28;5736;-81
2022/08/21 15:31:36;;;;;;;;;;;;;;;25.92;49.80;96659.69;4218938;28;7398;-81
2022/08/21 15:33:38;;;;;;;;;;;;;;;25.94;49.77;96657.50;4218841;28;5617;-81
2022/08/21 15:35:41;;;;;;;;;;;;;;;25.93;50.07;96647.75;4221387;28;5664;-80
2022/08/21 15:37:44;;;;;;;;;;;;;;;25.92;49.99;96650.75;4235877;28;5858;-80
2022/08/21 15:39:47;;;;;;;;;;;;;;;25.91;50.05;96652.66;4235934;28;5606;-80
2022/08/21 15:41:57;;;;;;;;;;;;;;;25.90;49.96;96642.94;4235825;28;5601;-80
2022/08/21 15:44:00;;;;;;;;;;;;;;;25.90;49.95;96631.28;4235155;28;5745;-77
2022/08/21 15:46:04;;;;;;;;;;;;;;;25.89;49.57;96635.91;4207017;28;6329;-85
2022/08/21 15:48:07;;;;;;;;;;;;;;;25.90;49.34;96637.50;4227371;28;5610;-83
2022/08/21 15:50:11;;;;;;;;;;;;;;;25.93;49.34;96642.31;4234272;28;5601;-79
2022/08/21 15:52:15;;;;;;;;;;;;;;;25.93;48.96;96639.63;4211822;28;5642;-80
2022/08/21 15:54:17;;;;;;;;;;;;;;;25.94;49.12;96635.84;4200558;28;5659;-83
2022/08/21 15:56:24;;;;;;;;;;;;;;;25.97;48.47;96637.94;4220325;28;5613;-80
2022/08/21 15:58:28;;;;;;;;;;;;;;;26.00;48.64;96637.34;4234689;28;5633;-80
2022/08/21 16:00:33;;;;;;;;;;;;;;;26.05;47.96;96642.69;4232671;28;5594;-79
2022/08/21 16:02:36;;;;;;;;;;;;;;;26.11;47.91;96638.78;4228162;28;5629;-79
2022/08/21 16:04:39;;;;;;;;;;;;;;;26.12;47.75;96634.97;4235056;28;5598;-79
2022/08/21 16:06:42;;;;;;;;;;;;;;;26.22;47.40;96633.22;4235092;28;5590;-80
2022/08/21 16:08:59;;;;;;;;;;;;;;;26.35;47.06;96635.16;4235624;28;6270;-82
2022/08/21 16:11:02;;;;;;;;;;;;;;;26.37;46.71;96635.69;4229048;28;5704;-80
2022/08/21 16:13:12;;;;;;;;;;;;;;;26.39;46.70;96644.34;4201988;28;5631;-80
2022/08/21 16:15:18;;;;;;;;;;;;;;;26.43;46.57;96634.50;4218161;28;5726;-80
2022/08/21 16:17:27;;;;;;;;;;;;;;;26.45;46.70;96637.72;4218286;28;5707;-80
2022/08/21 16:19:30;;;;;;;;;;;;;;;26.47;46.52;96631.97;4222047;28;5594;-80
2022/08/21 16:21:34;;;;;;;;;;;;;;;26.49;46.46;96638.72;4235461;27;5670;-80
2022/08/21 16:23:37;;;;;;;;;;;;;;;26.52;46.30;96635.41;4242057;27;5614;-79
2022/08/21 16:25:41;;;;;;;;;;;;;;;26.55;46.18;96628.59;4216773;28;5633;-81
2022/08/21 16:27:49;;;;;;;;;;;;;;;26.57;46.11;96640.72;4216505;28;5804;-80
2022/08/21 16:29:52;;;;;;;;;;;;;;;26.58;45.86;96628.78;4214911;28;5608;-79
2022/08/21 16:31:57;;;;;;;;;;;;;;;26.56;45.99;96630.19;4247952;27;5627;-80
2022/08/21 16:34:01;;;;;;;;;;;;;;;26.53;45.90;96634.31;4244172;27;5800;-79
2022/08/21 16:36:05;;;;;;;;;;;;;;;26.52;45.84;96630.00;4234332;27;8385;-79
2022/08/21 16:38:08;;;;;;;;;;;;;;;26.53;45.85;96628.91;4233740;28;5688;-79
2022/08/21 16:40:12;;;;;;;;;;;;;;;26.53;45.59;96626.19;4231565;28;5606;-79
2022/08/21 16:42:19;;;;;;;;;;;;;;;26.52;45.41;96632.72;4235191;28;5800;-80
2022/08/21 16:44:24;;;;;;;;;;;;;;;26.60;45.25;96639.31;4238315;27;6519;-79
2022/08/21 16:46:35;;;;;;;;;;;;;;;26.57;45.26;96629.91;4235695;27;5613;-82
2022/08/21 16:48:40;;;;;;;;;;;;;;;26.56;45.24;96628.28;4236280;27;5610;-80
2022/08/21 16:50:43;;;;;;;;;;;;;;;26.55;45.27;96631.31;4240210;27;6260;-79
2022/08/21 16:52:53;;;;;;;;;;;;;;;26.54;44.99;96627.00;4238779;27;5608;-79
2022/08/21 16:54:56;;;;;;;;;;;;;;;26.55;45.24;96634.00;4231143;28;5833;-80
2022/08/21 16:57:00;;;;;;;;;;;;;;;26.55;45.10;96623.97;4203916;28;5877;-79
2022/08/21 16:59:05;;;;;;;;;;;;;;;26.55;44.95;96632.09;4216537;28;5672;-80
2022/08/21 17:01:11;;;;;;;;;;;;;;;26.56;44.89;96631.00;4224033;28;5672;-80
2022/08/21 17:03:17;;;;;;;;;;;;;;;26.59;44.79;96626.88;4230873;28;5680;-80
2022/08/21 17:05:22;;;;;;;;;;;;;;;26.60;44.97;96633.91;4219347;28;5612;-78
2022/08/21 17:07:25;;;;;;;;;;;;;;;26.59;45.00;96630.38;4217755;28;5916;-80
2022/08/21 17:09:28;;;;;;;;;;;;;;;26.58;44.84;96634.22;4222973;28;6342;-79
2022/08/21 17:11:33;;;;;;;;;;;;;;;26.57;44.69;96637.22;4231518;28;5590;-80
2022/08/21 17:13:39;;;;;;;;;;;;;;;26.54;44.78;96635.13;4221767;28;5615;-80
2022/08/21 17:15:43;;;;;;;;;;;;;;;26.52;45.01;96638.13;4221039;28;5633;-79
2022/08/21 17:17:46;;;;;;;;;;;;;;;26.52;44.88;96627.28;4220692;28;5780;-81
2022/08/21 17:19:49;;;;;;;;;;;;;;;26.50;44.69;96632.19;4220656;28;5620;-80
2022/08/21 17:21:53;;;;;;;;;;;;;;;26.47;44.77;96630.06;4220781;28;5613;-80
2022/08/21 17:23:56;;;;;;;;;;;;;;;26.46;44.96;96631.19;4211085;28;5775;-79
2022/08/21 17:25:58;;;;;;;;;;;;;;;26.44;44.78;96625.25;4235317;28;5836;-80
2022/08/21 17:28:03;;;;;;;;;;;;;;;26.43;44.91;96631.78;4223350;28;5624;-80
2022/08/21 17:30:08;;;;;;;;;;;;;;;26.42;44.73;96629.38;4220959;28;5643;-80
2022/08/21 17:32:12;;;;;;;;;;;;;;;26.40;44.90;96635.91;4220752;28;5640;-80
2022/08/21 17:34:15;;;;;;;;;;;;;;;26.38;45.04;96631.88;4220797;28;5741;-80
2022/08/21 17:36:19;;;;;;;;;;;;;;;26.35;44.94;96638.66;4227521;28;5610;-79
2022/08/21 17:38:23;;;;;;;;;;;;;;;26.34;44.78;96633.53;4236514;28;5618;-79
2022/08/21 17:40:30;;;;;;;;;;;;;;;26.32;44.78;96639.25;4227375;28;5700;-79
2022/08/21 17:42:40;;;;;;;;;;;;;;;26.33;44.99;96637.34;4234352;28;5601;-79
2022/08/21 17:44:45;;;;;;;;;;;;;;;26.29;44.90;96639.06;4227539;28;5709;-75
2022/08/21 17:46:48;;;;;;;;;;;;;;;26.27;44.99;96642.03;4230924;27;5713;-78
2022/08/21 17:48:52;;;;;;;;;;;;;;;26.26;44.94;96636.91;4225584;27;5756;-78
2022/08/21 17:50:54;;;;;;;;;;;;;;;26.24;45.29;96641.84;4233542;27;5410;-80
2022/08/21 17:52:57;;;;;;;;;;;;;;;26.23;45.13;96640.22;4222090;27;5719;-79
2022/08/21 17:55:02;;;;;;;;;;;;;;;26.20;44.93;96641.63;4219287;28;5628;-79
2022/08/21 17:57:07;;;;;;;;;;;;;;;26.19;45.07;96642.75;4232176;28;5609;-83
2022/08/21 17:59:10;;;;;;;;;;;;;;;26.18;45.06;96649.25;4227223;27;6393;-81
2022/08/21 18:01:13;;;;;;;;;;;;;;;26.17;45.23;96650.38;4229927;27;5752;-81
2022/08/21 18:03:20;;;;;;;;;;;;;;;26.16;45.27;96645.22;4231721;27;5658;-80
2022/08/21 18:05:23;;;;;;;;;;;;;;;26.15;45.13;96651.75;4226450;28;5744;-79
2022/08/21 18:07:26;;;;;;;;;;;;;;;26.14;45.39;96661.78;4238601;27;5664;-80
2022/08/21 18:09:34;;;;;;;;;;;;;;;26.15;45.32;96659.88;4235903;27;5690;-80
2022/08/21 18:11:41;;;;;;;;;;;;;;;26.13;45.29;96658.25;4237458;27;5680;-79
2022/08/21 18:13:46;;;;;;;;;;;;;;;26.13;45.19;96669.09;4231587;27;5688;-82
2022/08/21 18:15:51;;;;;;;;;;;;;;;26.13;45.51;96657.47;4220821;27;5781;-73
2022/08/21 18:17:54;;;;;;;;;;;;;;;26.12;45.52;96662.06;4224235;27;5703;-74
2022/08/21 18:19:58;;;;;;;;;;;;;;;26.10;45.16;96652.63;4236506;27;5852;-74
2022/08/21 18:22:01;;;;;;;;;;;;;;;26.09;45.25;96664.56;4209754;28;5613;-61
2022/08/21 18:24:06;;;;;;;;;;;;;;;26.07;45.41;96659.47;4233825;27;7787;-66
2022/08/21 18:26:09;;;;;;;;;;;;;;;26.06;45.49;96665.97;4230535;27;5721;-71
2022/08/21 18:28:14;;;;;;;;;;;;;;;26.05;45.43;96661.66;4228829;27;7667;-67
2022/08/21 18:30:20;;;;;;;;;;;;;;;26.03;45.36;96671.97;4221538;28;6387;-65
2022/08/21 18:32:25;;;;;;;;;;;;;;;26.02;45.54;96666.84;4228825;27;5840;-68
2022/08/21 18:34:38;;;;;;;;;;;;;;;26.00;45.48;96675.28;4230803;28;6154;-73
2022/08/21 18:36:40;;;;;;;;;;;;;;;25.99;45.57;96670.97;4227795;28;5621;-67
2022/08/21 18:38:43;;;;;;;;;;;;;;;25.98;45.89;96673.97;4231989;28;5732;-74
2022/08/21 18:40:51;;;;;;;;;;;;;;;25.96;45.65;96678.88;4230026;27;5784;-72
2022/08/21 18:43:00;;;;;;;;;;;;;;;25.92;45.93;96681.34;4222459;27;5790;-66
2022/08/21 18:45:08;;;;;;;;;;;;;;;25.90;45.77;96674.63;4217828;27;5692;-69
2022/08/21 18:47:17;;;;;;;;;;;;;;;25.87;45.92;96673.31;4230042;27;5600;-71
2022/08/21 18:49:19;;;;;;;;;;;;;;;25.85;45.61;96680.94;4235136;27;5759;-71
2022/08/21 18:51:23;;;;;;;;;;;;;;;25.81;45.70;96682.59;4231191;27;5682;-73
2022/08/21 18:53:27;;;;;;;;;;;;;;;25.77;45.39;96687.00;4220808;28;6930;-65
2022/08/21 18:55:32;;;;;;;;;;;;;;;25.76;45.31;96690.81;4232452;27;5812;-63
2022/08/21 18:57:36;;;;;;;;;;;;;;;25.75;45.34;96683.78;4225091;28;5879;-68
2022/08/21 18:59:40;;;;;;;;;;;;;;;25.73;45.24;96692.19;4230699;27;5611;-65
2022/08/21 19:01:46;;;;;;;;;;;;;;;25.71;44.95;96688.16;4220939;28;5707;-69
2022/08/21 19:03:50;;;;;;;;;;;;;;;25.66;44.85;96691.72;4234906;27;6269;-71
2022/08/21 19:05:54;;;;;;;;;;;;;;;25.63;44.66;96692.31;4212043;28;5783;-65
2022/08/21 19:07:57;;;;;;;;;;;;;;;25.59;44.93;96690.47;4226141;28;5091;-70
2022/08/21 19:10:00;;;;;;;;;;;;;;;25.55;44.43;96684.84;4231481;28;5095;-68
2022/08/21 19:12:25;;;;;;;;;;;;;;;25.51;44.54;96687.31;4232302;28;5609;-68
2022/08/21 19:14:33;;;;;;;;;;;;;;;25.50;44.37;96693.84;4233939;27;5578;-68
2022/08/21 19:16:41;;;;;;;;;;;;;;;25.49;44.12;96691.44;4232591;27;5654;-63
2022/08/21 19:18:50;;;;;;;;;;;;;;;25.49;44.09;96697.66;4233604;27;5654;-67
2022/08/21 19:20:53;;;;;;;;;;;;;;;25.47;43.95;96693.59;4221175;28;5700;-70
2022/08/21 19:22:57;;;;;;;;;;;;;;;25.44;43.98;96705.00;4222592;28;5700;-68
2022/08/21 19:24:59;;;;;;;;;;;;;;;25.43;43.94;96704.22;4233314;27;5733;-70
2022/08/21 19:27:04;;;;;;;;;;;;;;;25.41;44.03;96706.41;4230584;27;5814;-67
2022/08/21 19:29:09;;;;;;;;;;;;;;;25.41;43.85;96703.69;4236655;27;5079;-71
2022/08/21 19:31:15;;;;;;;;;;;;;;;25.41;43.93;96706.41;4232601;27;5975;-67
2022/08/21 19:33:26;;;;;;;;;;;;;;;25.38;44.05;96707.00;4246596;27;5601;-72
2022/08/21 19:35:30;;;;;;;;;;;;;;;25.36;43.92;96701.03;4242096;27;5638;-67
2022/08/21 19:37:33;;;;;;;;;;;;;;;25.35;43.48;96698.63;4237896;27;5617;-66
2022/08/21 19:39:37;;;;;;;;;;;;;;;25.33;43.68;96703.53;4228528;27;5633;-65
2022/08/21 19:42:01;;;;;;;;;;;;;;;25.33;43.38;96698.91;4231082;27;5776;-66
2022/08/21 19:44:07;;;;;;;;;;;;;;;25.33;43.43;96698.91;4231349;27;6493;-65
2022/08/21 19:46:11;;;;;;;;;;;;;;;25.34;43.03;96699.72;4226071;28;5619;-69
2022/08/21 19:48:15;;;;;;;;;;;;;;;25.32;43.20;96691.91;4220284;27;5690;-68
2022/08/21 19:50:20;;;;;;;;;;;;;;;25.29;43.02;96699.81;4205013;28;5712;-70
2022/08/21 19:52:25;;;;;;;;;;;;;;;25.28;42.89;96696.28;4223448;28;5881;-65
2022/08/21 19:54:31;;;;;;;;;;;;;;;25.30;42.39;96698.69;4222342;28;7145;-68
2022/08/21 19:56:34;;;;;;;;;;;;;;;25.32;42.72;96699.22;4234709;28;5680;-67
2022/08/21 19:58:41;;;;;;;;;;;;;;;25.32;42.27;96696.50;4234567;28;5668;-70
2022/08/21 20:00:43;;;;;;;;;;;;;;;25.30;42.15;96694.09;4197508;28;5929;-68
2022/08/21 20:02:46;;;;;;;;;;;;;;;25.31;41.97;96689.50;4195952;28;5840;-67
2022/08/21 20:04:50;;;;;;;;;;;;;;;25.30;42.06;96693.28;4199780;28;5861;-69
2022/08/21 20:07:12;;;;;;;;;;;;;;;25.25;42.29;96691.44;4194258;28;5706;-67
2022/08/21 20:09:18;;;;;;;;;;;;;;;25.22;42.18;96687.41;4189171;28;5843;-65
2022/08/21 20:11:26;;;;;;;;;;;;;;;25.21;41.91;96685.00;4189892;28;5743;-64
2022/08/21 20:13:32;;;;;;;;;;;;;;;25.19;41.77;96687.19;4189620;28;5804;-70
2022/08/21 20:15:35;;;;;;;;;;;;;;;25.18;41.95;96685.59;4210015;28;5826;-65